sensor_id;sensor_type;location;lat;lon;timestamp;pressure;altitude;pressure_sealevel;temperature;humidity
8575;BME280;4325;42.520;27.448;2023-01-26T00:00:50;102043.44;;;4.55;100.00
8575;BME280;4325;42.520;27.448;2023-01-26T00:03:17;102046.16;;;4.55;100.00
8575;BME280;4325;42.520;27.448;2023-01-26T00:05:44;102039.47;;;4.51;100.00
8575;BME280;4325;42.520;27.448;2023-01-26T00:08:11;102046.75;;;4.51;100.00
8575;BME280;4325;42.520;27.448;2023-01-26T00:10:39;102040.09;;;4.53;100.00
8575;BME280;4325;42.520;27.448;2023-01-26T00:13:17;102034.06;;;4.58;100.00
8575;BME280;4325;42.520;27.448;2023-01-26T00:15:44;102043.06;;;4.65;100.00
8575;BME280;4325;42.520;27.448;2023-01-26T00:18:11;102032.88;;;4.67;100.00
8575;BME280;4325;42.520;27.448;2023-01-26T00:20:58;102039.31;;;4.66;100.00
8575;BME280;4325;42.520;27.448;2023-01-26T00:23:26;102038.94;;;4.69;100.00
8575;BME280;4325;42.520;27.448;2023-01-26T00:25:54;102038.31;;;4.74;100.00
8575;BME280;4325;42.520;27.448;2023-01-26T00:28:22;102030.78;;;4.69;100.00
8575;BME280;4325;42.520;27.448;2023-01-26T00:30:49;102038.06;;;4.62;100.00
8575;BME280;4325;42.520;27.448;2023-01-26T00:33:16;102039.72;;;4.63;100.00
8575;BME280;4325;42.520;27.448;2023-01-26T00:35:43;102040.78;;;4.62;100.00
8575;BME280;4325;42.520;27.448;2023-01-26T00:38:10;102033.44;;;4.62;100.00
8575;BME280;4325;42.520;27.448;2023-01-26T00:40:37;102019.72;;;4.64;100.00
8575;BME280;4325;42.520;27.448;2023-01-26T00:43:04;102029.94;;;4.68;100.00
8575;BME280;4325;42.520;27.448;2023-01-26T00:45:36;102033.50;;;4.69;100.00
8575;BME280;4325;42.520;27.448;2023-01-26T00:48:03;102021.19;;;4.73;100.00
8575;BME280;4325;42.520;27.448;2023-01-26T00:50:31;102018.50;;;4.73;100.00
8575;BME280;4325;42.520;27.448;2023-01-26T00:52:58;102026.63;;;4.73;100.00
8575;BME280;4325;42.520;27.448;2023-01-26T00:55:25;102025.63;;;4.81;100.00
8575;BME280;4325;42.520;27.448;2023-01-26T00:57:56;102020.41;;;4.79;100.00
8575;BME280;4325;42.520;27.448;2023-01-26T01:00:23;102019.97;;;4.82;100.00
8575;BME280;4325;42.520;27.448;2023-01-26T01:02:51;102019.75;;;4.77;100.00
8575;BME280;4325;42.520;27.448;2023-01-26T01:05:20;102016.63;;;4.74;100.00
8575;BME280;4325;42.520;27.448;2023-01-26T01:07:47;102015.78;;;4.73;100.00
8575;BME280;4325;42.520;27.448;2023-01-26T01:10:14;102005.13;;;4.72;100.00
8575;BME280;4325;42.520;27.448;2023-01-26T01:12:41;102010.56;;;4.72;100.00
8575;BME280;4325;42.520;27.448;2023-01-26T01:15:08;102009.50;;;4.73;100.00
8575;BME280;4325;42.520;27.448;2023-01-26T01:17:35;102012.66;;;4.76;100.00
8575;BME280;4325;42.520;27.448;2023-01-26T01:20:06;102020.41;;;4.79;100.00
8575;BME280;4325;42.520;27.448;2023-01-26T01:22:34;102018.50;;;4.80;100.00
8575;BME280;4325;42.520;27.448;2023-01-26T01:25:01;102016.78;;;4.65;100.00
8575;BME280;4325;42.520;27.448;2023-01-26T01:27:28;102019.44;;;4.52;100.00
8575;BME280;4325;42.520;27.448;2023-01-26T01:29:55;102018.28;;;4.34;100.00
8575;BME280;4325;42.520;27.448;2023-01-26T01:32:21;102010.91;;;4.21;100.00
8575;BME280;4325;42.520;27.448;2023-01-26T01:34:48;102000.94;;;3.94;100.00
8575;BME280;4325;42.520;27.448;2023-01-26T01:37:17;101995.03;;;3.84;100.00
8575;BME280;4325;42.520;27.448;2023-01-26T01:39:44;101995.63;;;3.79;100.00
8575;BME280;4325;42.520;27.448;2023-01-26T01:42:11;101987.06;;;3.82;100.00
8575;BME280;4325;42.520;27.448;2023-01-26T01:44:38;101982.13;;;3.86;100.00
8575;BME280;4325;42.520;27.448;2023-01-26T01:47:09;101978.03;;;3.96;100.00
8575;BME280;4325;42.520;27.448;2023-01-26T01:49:39;101972.25;;;4.06;100.00
8575;BME280;4325;42.520;27.448;2023-01-26T01:52:10;101966.06;;;4.19;100.00
8575;BME280;4325;42.520;27.448;2023-01-26T01:54:42;101971.94;;;4.29;100.00
8575;BME280;4325;42.520;27.448;2023-01-26T01:57:11;101967.63;;;4.41;100.00
8575;BME280;4325;42.520;27.448;2023-01-26T01:59:43;101958.72;;;4.47;100.00
8575;BME280;4325;42.520;27.448;2023-01-26T02:02:12;101967.06;;;4.52;100.00
8575;BME280;4325;42.520;27.448;2023-01-26T02:04:40;101970.44;;;4.60;100.00
8575;BME280;4325;42.520;27.448;2023-01-26T02:07:09;101965.06;;;4.67;100.00
8575;BME280;4325;42.520;27.448;2023-01-26T02:09:39;101962.16;;;4.75;100.00
8575;BME280;4325;42.520;27.448;2023-01-26T02:12:26;101952.16;;;4.82;100.00
8575;BME280;4325;42.520;27.448;2023-01-26T02:14:56;101953.00;;;4.89;100.00
8575;BME280;4325;42.520;27.448;2023-01-26T02:17:23;101943.03;;;4.96;100.00
8575;BME280;4325;42.520;27.448;2023-01-26T02:19:58;101934.03;;;5.02;100.00
8575;BME280;4325;42.520;27.448;2023-01-26T02:22:33;101939.91;;;5.12;100.00
8575;BME280;4325;42.520;27.448;2023-01-26T02:25:09;101936.34;;;5.18;100.00
8575;BME280;4325;42.520;27.448;2023-01-26T02:27:40;101925.09;;;5.21;100.00
8575;BME280;4325;42.520;27.448;2023-01-26T02:30:08;101928.03;;;5.20;100.00
8575;BME280;4325;42.520;27.448;2023-01-26T02:32:37;101924.69;;;5.18;100.00
8575;BME280;4325;42.520;27.448;2023-01-26T02:35:04;101930.91;;;5.18;100.00
8575;BME280;4325;42.520;27.448;2023-01-26T02:37:31;101924.66;;;5.05;100.00
8575;BME280;4325;42.520;27.448;2023-01-26T02:40:02;101910.03;;;4.93;100.00
8575;BME280;4325;42.520;27.448;2023-01-26T02:42:31;101911.88;;;4.79;100.00
8575;BME280;4325;42.520;27.448;2023-01-26T02:45:13;101891.97;;;4.52;100.00
8575;BME280;4325;42.520;27.448;2023-01-26T02:47:40;101916.19;;;4.54;100.00
8575;BME280;4325;42.520;27.448;2023-01-26T02:50:09;101909.66;;;4.42;100.00
8575;BME280;4325;42.520;27.448;2023-01-26T02:52:35;101906.31;;;4.40;100.00
8575;BME280;4325;42.520;27.448;2023-01-26T02:55:03;101900.69;;;4.41;100.00
8575;BME280;4325;42.520;27.448;2023-01-26T02:57:50;101900.69;;;4.41;100.00
8575;BME280;4325;42.520;27.448;2023-01-26T03:00:21;101894.03;;;4.44;100.00
8575;BME280;4325;42.520;27.448;2023-01-26T03:02:49;101879.00;;;4.48;100.00
8575;BME280;4325;42.520;27.448;2023-01-26T03:05:16;101868.59;;;4.51;100.00
8575;BME280;4325;42.520;27.448;2023-01-26T03:07:43;101869.44;;;4.52;100.00
8575;BME280;4325;42.520;27.448;2023-01-26T03:10:11;101873.19;;;4.51;100.00
8575;BME280;4325;42.520;27.448;2023-01-26T03:12:38;101873.16;;;4.44;100.00
8575;BME280;4325;42.520;27.448;2023-01-26T03:15:05;101871.91;;;4.40;100.00
8575;BME280;4325;42.520;27.448;2023-01-26T03:17:51;101865.22;;;4.36;100.00
8575;BME280;4325;42.520;27.448;2023-01-26T03:20:39;101860.84;;;4.42;100.00
8575;BME280;4325;42.520;27.448;2023-01-26T03:23:19;101866.72;;;4.52;100.00
8575;BME280;4325;42.520;27.448;2023-01-26T03:26:09;101880.31;;;4.58;100.00
8575;BME280;4325;42.520;27.448;2023-01-26T03:28:53;101876.34;;;4.61;100.00
8575;BME280;4325;42.520;27.448;2023-01-26T03:31:20;101874.47;;;4.61;100.00
8575;BME280;4325;42.520;27.448;2023-01-26T03:33:48;101884.47;;;4.61;100.00
8575;BME280;4325;42.520;27.448;2023-01-26T03:36:15;101874.47;;;4.61;100.00
8575;BME280;4325;42.520;27.448;2023-01-26T03:38:42;101865.28;;;4.62;100.00
8575;BME280;4325;42.520;27.448;2023-01-26T03:41:09;101859.84;;;4.62;100.00
8575;BME280;4325;42.520;27.448;2023-01-26T03:43:53;101857.59;;;4.66;100.00
8575;BME280;4325;42.520;27.448;2023-01-26T03:46:38;101842.78;;;4.68;100.00
8575;BME280;4325;42.520;27.448;2023-01-26T03:49:23;101858.66;;;4.72;100.00
8575;BME280;4325;42.520;27.448;2023-01-26T03:52:08;101849.03;;;4.69;100.00
8575;BME280;4325;42.520;27.448;2023-01-26T03:54:52;101857.41;;;4.74;100.00
8575;BME280;4325;42.520;27.448;2023-01-26T03:57:36;101866.56;;;4.66;100.00
8575;BME280;4325;42.520;27.448;2023-01-26T04:00:04;101862.56;;;4.56;100.00
8575;BME280;4325;42.520;27.448;2023-01-26T04:02:31;101867.75;;;4.51;100.00
8575;BME280;4325;42.520;27.448;2023-01-26T04:05:17;101869.00;;;4.48;100.00
8575;BME280;4325;42.520;27.448;2023-01-26T04:08:01;101868.75;;;4.37;100.00
8575;BME280;4325;42.520;27.448;2023-01-26T04:10:48;101862.47;;;4.30;100.00
8575;BME280;4325;42.520;27.448;2023-01-26T04:13:16;101860.81;;;4.29;100.00
8575;BME280;4325;42.520;27.448;2023-01-26T04:16:00;101853.91;;;4.26;100.00
8575;BME280;4325;42.520;27.448;2023-01-26T04:18:44;101853.50;;;4.23;100.00
8575;BME280;4325;42.520;27.448;2023-01-26T04:21:30;101859.31;;;4.20;100.00
8575;BME280;4325;42.520;27.448;2023-01-26T04:23:59;101870.28;;;3.98;100.00
8575;BME280;4325;42.520;27.448;2023-01-26T04:26:28;101862.91;;;3.86;100.00
8575;BME280;4325;42.520;27.448;2023-01-26T04:28:59;101872.84;;;3.72;100.00
8575;BME280;4325;42.520;27.448;2023-01-26T04:31:27;101864.41;;;3.61;100.00
8575;BME280;4325;42.520;27.448;2023-01-26T04:33:54;101861.03;;;3.52;100.00
8575;BME280;4325;42.520;27.448;2023-01-26T04:36:20;101865.16;;;3.48;100.00
8575;BME280;4325;42.520;27.448;2023-01-26T04:38:49;101863.88;;;3.44;100.00
8575;BME280;4325;42.520;27.448;2023-01-26T04:41:17;101846.78;;;3.37;100.00
8575;BME280;4325;42.520;27.448;2023-01-26T04:43:45;101850.91;;;3.33;100.00
8575;BME280;4325;42.520;27.448;2023-01-26T04:46:12;101854.25;;;3.35;100.00
8575;BME280;4325;42.520;27.448;2023-01-26T04:48:39;101850.50;;;3.36;100.00
8575;BME280;4325;42.520;27.448;2023-01-26T04:51:08;101850.31;;;3.38;100.00
8575;BME280;4325;42.520;27.448;2023-01-26T04:53:36;101842.00;;;3.39;100.00
8575;BME280;4325;42.520;27.448;2023-01-26T04:56:06;101848.63;;;3.37;100.00
8575;BME280;4325;42.520;27.448;2023-01-26T04:58:33;101841.38;;;3.44;100.00
8575;BME280;4325;42.520;27.448;2023-01-26T05:01:00;101852.28;;;3.50;100.00
8575;BME280;4325;42.520;27.448;2023-01-26T05:03:27;101844.78;;;3.52;100.00
8575;BME280;4325;42.520;27.448;2023-01-26T05:05:54;101828.56;;;3.52;100.00
8575;BME280;4325;42.520;27.448;2023-01-26T05:08:21;101831.06;;;3.60;100.00
8575;BME280;4325;42.520;27.448;2023-01-26T05:10:48;101837.31;;;3.54;100.00
8575;BME280;4325;42.520;27.448;2023-01-26T05:13:18;101842.25;;;3.51;100.00
8575;BME280;4325;42.520;27.448;2023-01-26T05:15:45;101843.13;;;3.51;100.00
8575;BME280;4325;42.520;27.448;2023-01-26T05:18:12;101829.19;;;3.54;100.00
8575;BME280;4325;42.520;27.448;2023-01-26T05:20:39;101838.63;;;3.65;100.00
8575;BME280;4325;42.520;27.448;2023-01-26T05:23:06;101853.56;;;3.54;100.00
8575;BME280;4325;42.520;27.448;2023-01-26T05:25:33;101851.22;;;3.51;100.00
8575;BME280;4325;42.520;27.448;2023-01-26T05:28:00;101841.47;;;3.50;100.00
8575;BME280;4325;42.520;27.448;2023-01-26T05:30:28;101842.72;;;3.54;100.00
8575;BME280;4325;42.520;27.448;2023-01-26T05:32:59;101849.41;;;3.58;100.00
8575;BME280;4325;42.520;27.448;2023-01-26T05:35:26;101851.72;;;3.61;100.00
8575;BME280;4325;42.520;27.448;2023-01-26T05:37:54;101852.19;;;3.71;100.00
8575;BME280;4325;42.520;27.448;2023-01-26T05:40:22;101839.31;;;3.80;100.00
8575;BME280;4325;42.520;27.448;2023-01-26T05:42:49;101840.97;;;3.74;100.00
8575;BME280;4325;42.520;27.448;2023-01-26T05:45:16;101839.53;;;3.78;100.00
8575;BME280;4325;42.520;27.448;2023-01-26T05:47:46;101838.75;;;3.84;100.00
8575;BME280;4325;42.520;27.448;2023-01-26T05:50:14;101844.59;;;3.94;100.00
8575;BME280;4325;42.520;27.448;2023-01-26T05:52:41;101835.53;;;4.09;100.00
8575;BME280;4325;42.520;27.448;2023-01-26T05:55:11;101838.66;;;4.19;100.00
8575;BME280;4325;42.520;27.448;2023-01-26T05:57:39;101847.47;;;4.27;100.00
8575;BME280;4325;42.520;27.448;2023-01-26T06:00:07;101832.66;;;4.30;100.00
8575;BME280;4325;42.520;27.448;2023-01-26T06:02:34;101830.59;;;4.32;100.00
8575;BME280;4325;42.520;27.448;2023-01-26T06:05:04;101830.59;;;4.32;100.00
8575;BME280;4325;42.520;27.448;2023-01-26T06:07:32;101839.78;;;4.44;100.00
8575;BME280;4325;42.520;27.448;2023-01-26T06:09:59;101840.00;;;4.49;100.00
8575;BME280;4325;42.520;27.448;2023-01-26T06:12:26;101841.03;;;4.35;100.00
8575;BME280;4325;42.520;27.448;2023-01-26T06:15:00;101848.94;;;4.30;100.00
8575;BME280;4325;42.520;27.448;2023-01-26T06:17:28;101847.22;;;4.16;100.00
8575;BME280;4325;42.520;27.448;2023-01-26T06:19:59;101841.38;;;4.19;100.00
8575;BME280;4325;42.520;27.448;2023-01-26T06:22:30;101834.91;;;4.20;100.00
8575;BME280;4325;42.520;27.448;2023-01-26T06:24:57;101815.53;;;4.23;100.00
8575;BME280;4325;42.520;27.448;2023-01-26T06:30:13;101820.84;;;4.57;100.00
8575;BME280;4325;42.520;27.448;2023-01-26T06:32:51;101822.75;;;4.76;100.00
8575;BME280;4325;42.520;27.448;2023-01-26T06:35:21;101806.06;;;4.92;100.00
8575;BME280;4325;42.520;27.448;2023-01-26T06:37:53;101804.81;;;5.01;100.00
8575;BME280;4325;42.520;27.448;2023-01-26T06:40:22;101798.97;;;5.11;100.00
8575;BME280;4325;42.520;27.448;2023-01-26T06:42:53;101804.38;;;5.17;100.00
8575;BME280;4325;42.520;27.448;2023-01-26T06:45:23;101795.16;;;5.31;100.00
8575;BME280;4325;42.520;27.448;2023-01-26T06:47:50;101786.41;;;5.43;100.00
8575;BME280;4325;42.520;27.448;2023-01-26T06:50:30;101782.59;;;5.57;100.00
8575;BME280;4325;42.520;27.448;2023-01-26T06:53:24;101781.28;;;5.72;100.00
8575;BME280;4325;42.520;27.448;2023-01-26T06:55:51;101768.91;;;5.83;100.00
8575;BME280;4325;42.520;27.448;2023-01-26T06:58:18;101762.00;;;5.93;100.00
8575;BME280;4325;42.520;27.448;2023-01-26T07:00:45;101757.38;;;6.01;100.00
8575;BME280;4325;42.520;27.448;2023-01-26T07:03:12;101756.91;;;6.10;100.00
8575;BME280;4325;42.520;27.448;2023-01-26T07:05:39;101751.41;;;6.17;100.00
8575;BME280;4325;42.520;27.448;2023-01-26T07:08:08;101740.09;;;6.20;100.00
8575;BME280;4325;42.520;27.448;2023-01-26T07:10:35;101750.16;;;6.19;100.00
8575;BME280;4325;42.520;27.448;2023-01-26T07:13:03;101759.69;;;6.28;100.00
8575;BME280;4325;42.520;27.448;2023-01-26T07:15:30;101765.72;;;6.37;100.00
8575;BME280;4325;42.520;27.448;2023-01-26T07:17:57;101770.50;;;6.41;100.00
8575;BME280;4325;42.520;27.448;2023-01-26T07:20:24;101779.28;;;6.43;100.00
8575;BME280;4325;42.520;27.448;2023-01-26T07:22:51;101777.16;;;6.45;100.00
8575;BME280;4325;42.520;27.448;2023-01-26T07:25:20;101780.69;;;6.52;100.00
8575;BME280;4325;42.520;27.448;2023-01-26T07:27:46;101775.59;;;6.62;100.00
8575;BME280;4325;42.520;27.448;2023-01-26T07:30:16;101765.94;;;6.67;100.00
8575;BME280;4325;42.520;27.448;2023-01-26T07:32:43;101773.94;;;6.61;100.00
8575;BME280;4325;42.520;27.448;2023-01-26T07:35:10;101783.88;;;6.49;100.00
8575;BME280;4325;42.520;27.448;2023-01-26T07:37:37;101772.31;;;6.54;100.00
8575;BME280;4325;42.520;27.448;2023-01-26T07:40:05;101767.00;;;6.65;100.00
8575;BME280;4325;42.520;27.448;2023-01-26T07:42:33;101768.31;;;6.56;100.00
8575;BME280;4325;42.520;27.448;2023-01-26T07:45:00;101761.91;;;6.44;100.00
8575;BME280;4325;42.520;27.448;2023-01-26T07:47:27;101771.38;;;6.35;100.00
8575;BME280;4325;42.520;27.448;2023-01-26T07:49:54;101773.75;;;6.25;100.00
8575;BME280;4325;42.520;27.448;2023-01-26T07:52:20;101777.84;;;6.03;100.00
8575;BME280;4325;42.520;27.448;2023-01-26T07:54:47;101772.19;;;6.05;100.00
8575;BME280;4325;42.520;27.448;2023-01-26T07:57:15;101772.13;;;6.18;100.00
8575;BME280;4325;42.520;27.448;2023-01-26T07:59:44;101770.75;;;6.40;100.00
8575;BME280;4325;42.520;27.448;2023-01-26T08:02:11;101770.56;;;6.35;100.00
8575;BME280;4325;42.520;27.448;2023-01-26T08:04:37;101763.75;;;6.50;100.00
8575;BME280;4325;42.520;27.448;2023-01-26T08:07:04;101761.00;;;6.82;100.00
8575;BME280;4325;42.520;27.448;2023-01-26T08:09:31;101760.72;;;6.90;100.00
8575;BME280;4325;42.520;27.448;2023-01-26T08:11:58;101770.09;;;6.94;100.00
8575;BME280;4325;42.520;27.448;2023-01-26T08:14:25;101758.34;;;7.00;99.57
8575;BME280;4325;42.520;27.448;2023-01-26T08:16:54;101763.38;;;6.96;98.43
8575;BME280;4325;42.520;27.448;2023-01-26T08:19:21;101763.09;;;7.47;99.93
8575;BME280;4325;42.520;27.448;2023-01-26T08:21:47;101769.16;;;8.33;97.90
8575;BME280;4325;42.520;27.448;2023-01-26T08:24:14;101760.78;;;9.46;89.30
8575;BME280;4325;42.520;27.448;2023-01-26T08:26:41;101757.69;;;10.33;77.79
8575;BME280;4325;42.520;27.448;2023-01-26T08:29:08;101755.09;;;10.72;76.04
8575;BME280;4325;42.520;27.448;2023-01-26T08:31:35;101759.16;;;10.52;74.65
8575;BME280;4325;42.520;27.448;2023-01-26T08:34:03;101746.47;;;10.18;76.75
8575;BME280;4325;42.520;27.448;2023-01-26T08:36:30;101742.41;;;10.21;78.11
8575;BME280;4325;42.520;27.448;2023-01-26T08:38:56;101747.56;;;10.17;79.06
8575;BME280;4325;42.520;27.448;2023-01-26T08:41:23;101741.84;;;10.07;79.18
8575;BME280;4325;42.520;27.448;2023-01-26T08:43:50;101731.63;;;10.14;81.87
8575;BME280;4325;42.520;27.448;2023-01-26T08:46:17;101730.22;;;9.37;80.51
8575;BME280;4325;42.520;27.448;2023-01-26T08:48:44;101721.09;;;8.85;85.43
8575;BME280;4325;42.520;27.448;2023-01-26T08:51:12;101710.44;;;8.95;89.49
8575;BME280;4325;42.520;27.448;2023-01-26T08:53:39;101704.47;;;9.21;91.26
8575;BME280;4325;42.520;27.448;2023-01-26T08:56:08;101689.00;;;9.39;90.15
8575;BME280;4325;42.520;27.448;2023-01-26T08:58:35;101687.22;;;9.44;89.03
8575;BME280;4325;42.520;27.448;2023-01-26T09:01:03;101685.88;;;9.47;91.45
8575;BME280;4325;42.520;27.448;2023-01-26T09:03:30;101685.28;;;9.56;90.86
8575;BME280;4325;42.520;27.448;2023-01-26T09:05:58;101669.22;;;9.60;89.43
8575;BME280;4325;42.520;27.448;2023-01-26T09:08:27;101652.34;;;9.63;89.20
8575;BME280;4325;42.520;27.448;2023-01-26T09:10:54;101652.13;;;9.81;89.80
8575;BME280;4325;42.520;27.448;2023-01-26T09:13:21;101645.31;;;9.95;87.90
8575;BME280;4325;42.520;27.448;2023-01-26T09:15:48;101635.91;;;9.91;88.91
8575;BME280;4325;42.520;27.448;2023-01-26T09:18:15;101629.28;;;9.87;89.83
8575;BME280;4325;42.520;27.448;2023-01-26T09:20:42;101632.00;;;9.87;88.54
8575;BME280;4325;42.520;27.448;2023-01-26T09:23:10;101624.47;;;9.94;88.82
8575;BME280;4325;42.520;27.448;2023-01-26T09:25:39;101619.19;;;10.04;88.72
8575;BME280;4325;42.520;27.448;2023-01-26T09:28:05;101608.66;;;10.24;88.20
8575;BME280;4325;42.520;27.448;2023-01-26T09:30:32;101608.88;;;10.39;85.96
8575;BME280;4325;42.520;27.448;2023-01-26T09:33:00;101607.88;;;10.45;85.42
8575;BME280;4325;42.520;27.448;2023-01-26T09:35:29;101608.78;;;10.34;84.25
8575;BME280;4325;42.520;27.448;2023-01-26T09:37:56;101607.97;;;10.17;85.41
8575;BME280;4325;42.520;27.448;2023-01-26T09:40:32;101619.75;;;9.89;84.13
8575;BME280;4325;42.520;27.448;2023-01-26T09:43:16;101611.50;;;9.45;84.73
8575;BME280;4325;42.520;27.448;2023-01-26T09:45:53;101616.00;;;8.99;87.25
8575;BME280;4325;42.520;27.448;2023-01-26T09:48:32;101606.41;;;8.62;90.34
8575;BME280;4325;42.520;27.448;2023-01-26T09:51:03;101612.13;;;8.49;92.84
8575;BME280;4325;42.520;27.448;2023-01-26T09:53:40;101607.84;;;8.30;93.54
8575;BME280;4325;42.520;27.448;2023-01-26T09:56:14;101617.25;;;8.16;94.46
8575;BME280;4325;42.520;27.448;2023-01-26T09:58:46;101618.13;;;7.86;94.67
8575;BME280;4325;42.520;27.448;2023-01-26T10:01:19;101619.25;;;7.67;95.75
8575;BME280;4325;42.520;27.448;2023-01-26T10:03:55;101623.03;;;7.37;98.10
8575;BME280;4325;42.520;27.448;2023-01-26T10:06:27;101625.44;;;7.26;99.83
8575;BME280;4325;42.520;27.448;2023-01-26T10:08:58;101606.78;;;7.30;100.00
8575;BME280;4325;42.520;27.448;2023-01-26T10:11:28;101607.22;;;7.27;100.00
8575;BME280;4325;42.520;27.448;2023-01-26T10:14:01;101601.31;;;7.30;100.00
8575;BME280;4325;42.520;27.448;2023-01-26T10:16:32;101606.47;;;7.02;100.00
8575;BME280;4325;42.520;27.448;2023-01-26T10:19:02;101591.94;;;6.72;100.00
8575;BME280;4325;42.520;27.448;2023-01-26T10:21:32;101586.63;;;6.58;100.00
8575;BME280;4325;42.520;27.448;2023-01-26T10:24:01;101576.19;;;6.37;100.00
8575;BME280;4325;42.520;27.448;2023-01-26T10:26:31;101555.13;;;6.26;100.00
8575;BME280;4325;42.520;27.448;2023-01-26T10:28:59;101555.91;;;6.33;100.00
8575;BME280;4325;42.520;27.448;2023-01-26T10:31:29;101542.78;;;6.48;100.00
8575;BME280;4325;42.520;27.448;2023-01-26T10:33:58;101539.56;;;6.76;100.00
8575;BME280;4325;42.520;27.448;2023-01-26T10:36:28;101533.50;;;6.92;100.00
8575;BME280;4325;42.520;27.448;2023-01-26T10:39:02;101526.75;;;6.95;100.00
8575;BME280;4325;42.520;27.448;2023-01-26T10:41:29;101528.88;;;6.93;100.00
8575;BME280;4325;42.520;27.448;2023-01-26T10:43:59;101532.06;;;6.90;100.00
8575;BME280;4325;42.520;27.448;2023-01-26T10:46:32;101526.56;;;6.78;100.00
8575;BME280;4325;42.520;27.448;2023-01-26T10:49:02;101535.69;;;6.65;100.00
8575;BME280;4325;42.520;27.448;2023-01-26T10:51:30;101547.78;;;6.51;100.00
8575;BME280;4325;42.520;27.448;2023-01-26T10:54:18;101539.59;;;6.33;100.00
8575;BME280;4325;42.520;27.448;2023-01-26T10:56:48;101537.63;;;6.22;100.00
8575;BME280;4325;42.520;27.448;2023-01-26T10:59:23;101524.72;;;6.11;100.00
8575;BME280;4325;42.520;27.448;2023-01-26T11:01:53;101519.47;;;6.16;100.00
8575;BME280;4325;42.520;27.448;2023-01-26T11:04:21;101516.75;;;6.16;100.00
8575;BME280;4325;42.520;27.448;2023-01-26T11:06:48;101514.03;;;6.16;100.00
8575;BME280;4325;42.520;27.448;2023-01-26T11:09:20;101517.66;;;6.10;100.00
8575;BME280;4325;42.520;27.448;2023-01-26T11:12:00;101508.50;;;6.05;100.00
8575;BME280;4325;42.520;27.448;2023-01-26T11:14:30;101502.69;;;6.01;100.00
8575;BME280;4325;42.520;27.448;2023-01-26T11:17:07;101491.34;;;6.04;100.00
8575;BME280;4325;42.520;27.448;2023-01-26T11:19:55;101483.94;;;6.11;100.00
8575;BME280;4325;42.520;27.448;2023-01-26T11:22:32;101477.47;;;6.12;100.00
8575;BME280;4325;42.520;27.448;2023-01-26T11:25:13;101477.19;;;6.20;100.00
8575;BME280;4325;42.520;27.448;2023-01-26T11:27:51;101465.56;;;6.31;100.00
8575;BME280;4325;42.520;27.448;2023-01-26T11:30:40;101450.22;;;6.55;100.00
8575;BME280;4325;42.520;27.448;2023-01-26T11:33:15;101448.69;;;6.77;100.00
8575;BME280;4325;42.520;27.448;2023-01-26T11:35:51;101446.28;;;6.99;100.00
8575;BME280;4325;42.520;27.448;2023-01-26T11:38:51;101427.31;;;7.22;100.00
8575;BME280;4325;42.520;27.448;2023-01-26T11:41:33;101431.28;;;7.49;100.00
8575;BME280;4325;42.520;27.448;2023-01-26T11:44:33;101423.59;;;7.69;100.00
8575;BME280;4325;42.520;27.448;2023-01-26T11:47:20;101418.50;;;7.84;100.00
8575;BME280;4325;42.520;27.448;2023-01-26T11:50:08;101403.09;;;8.02;100.00
8575;BME280;4325;42.520;27.448;2023-01-26T11:52:47;101388.63;;;8.13;100.00
8575;BME280;4325;42.520;27.448;2023-01-26T11:55:23;101389.44;;;8.25;100.00
8575;BME280;4325;42.520;27.448;2023-01-26T11:58:04;101369.72;;;8.46;100.00
8575;BME280;4325;42.520;27.448;2023-01-26T12:00:38;101351.88;;;8.83;100.00
8575;BME280;4325;42.520;27.448;2023-01-26T12:03:15;101353.25;;;9.30;100.00
8575;BME280;4325;42.520;27.448;2023-01-26T12:05:46;101359.84;;;9.68;100.00
8575;BME280;4325;42.520;27.448;2023-01-26T12:08:19;101346.22;;;9.89;100.00
8575;BME280;4325;42.520;27.448;2023-01-26T12:11:02;101342.88;;;10.04;100.00
8575;BME280;4325;42.520;27.448;2023-01-26T12:13:51;101330.72;;;10.60;100.00
8575;BME280;4325;42.520;27.448;2023-01-26T12:16:27;101320.09;;;12.01;96.51
8575;BME280;4325;42.520;27.448;2023-01-26T12:19:03;101324.00;;;13.37;88.10
8575;BME280;4325;42.520;27.448;2023-01-26T12:21:33;101320.88;;;14.04;76.46
8575;BME280;4325;42.520;27.448;2023-01-26T12:24:04;101318.53;;;14.36;73.63
8575;BME280;4325;42.520;27.448;2023-01-26T12:26:34;101315.59;;;14.77;72.21
8575;BME280;4325;42.520;27.448;2023-01-26T12:29:08;101317.59;;;15.05;71.07
8575;BME280;4325;42.520;27.448;2023-01-26T12:31:44;101314.22;;;15.13;69.52
8575;BME280;4325;42.520;27.448;2023-01-26T12:34:14;101317.25;;;15.11;68.68
8575;BME280;4325;42.520;27.448;2023-01-26T12:36:46;101312.59;;;14.68;70.39
8575;BME280;4325;42.520;27.448;2023-01-26T12:39:24;101318.56;;;14.21;73.76
8575;BME280;4325;42.520;27.448;2023-01-26T12:42:06;101317.63;;;13.77;78.58
8575;BME280;4325;42.520;27.448;2023-01-26T12:44:38;101313.53;;;13.54;81.86
8575;BME280;4325;42.520;27.448;2023-01-26T12:47:10;101307.50;;;13.47;84.40
8575;BME280;4325;42.520;27.448;2023-01-26T12:49:47;101290.16;;;13.21;85.36
8575;BME280;4325;42.520;27.448;2023-01-26T12:52:20;101295.06;;;12.74;87.87
8575;BME280;4325;42.520;27.448;2023-01-26T12:54:54;101282.81;;;12.15;92.21
8575;BME280;4325;42.520;27.448;2023-01-26T12:57:26;101284.91;;;11.87;96.00
8575;BME280;4325;42.520;27.448;2023-01-26T13:00:03;101280.25;;;11.46;99.17
8575;BME280;4325;42.520;27.448;2023-01-26T13:02:33;101282.88;;;11.31;100.00
8575;BME280;4325;42.520;27.448;2023-01-26T13:05:04;101288.25;;;11.16;100.00
8575;BME280;4325;42.520;27.448;2023-01-26T13:07:36;101275.56;;;11.10;100.00
8575;BME280;4325;42.520;27.448;2023-01-26T13:10:09;101275.63;;;11.15;100.00
8575;BME280;4325;42.520;27.448;2023-01-26T13:12:46;101279.69;;;11.12;100.00
8575;BME280;4325;42.520;27.448;2023-01-26T13:15:15;101287.69;;;11.14;100.00
8575;BME280;4325;42.520;27.448;2023-01-26T13:17:53;101298.56;;;11.04;100.00
8575;BME280;4325;42.520;27.448;2023-01-26T13:20:28;101288.50;;;10.83;100.00
8575;BME280;4325;42.520;27.448;2023-01-26T13:23:36;101290.59;;;10.71;100.00